Time;durP1;ratioP1;P1;durP2;ratioP2;P2;SDS_P1;SDS_P2;PMS_P1;PMS_P2;Temp;Humidity;BMP_temperature;BMP_pressure;BME280_temperature;BME280_humidity;BME280_pressure;Samples;Min_cycle;Max_cycle;Signal;HPM_P1;HPM_P2
2022/07/06 00:01:57;;;;;;;2.60;0.68;;;;;;;24.09;33.44;101687.03;4967973;28;99001;-71
2022/07/06 00:04:23;;;;;;;5.18;1.10;;;;;;;23.88;34.04;101689.53;4968879;28;98844;-70
2022/07/06 00:06:50;;;;;;;3.53;0.90;;;;;;;23.85;33.93;101689.75;4967408;28;96982;-71
2022/07/06 00:09:17;;;;;;;2.33;0.80;;;;;;;23.98;33.80;101687.81;4970363;28;97064;-71
2022/07/06 00:11:43;;;;;;;5.75;0.70;;;;;;;23.90;34.33;101683.97;4962730;28;98983;-70
2022/07/06 00:14:11;;;;;;;4.68;0.90;;;;;;;;;;4968053;28;98926;-71
2022/07/06 00:16:37;;;;;;;2.50;1.00;;;;;;;23.93;34.13;101678.38;4974601;28;97070;-69
2022/07/06 00:19:04;;;;;;;2.90;0.77;;;;;;;23.72;34.58;101684.41;4972260;28;96873;-69
2022/07/06 00:21:30;;;;;;;3.28;0.90;;;;;;;23.89;34.54;101683.16;4967858;28;98956;-69
2022/07/06 00:23:56;;;;;;;3.10;0.88;;;;;;;23.97;34.18;101672.59;4971467;28;99702;-70
2022/07/06 00:26:23;;;;;;;4.82;1.40;;;;;;;23.99;34.52;101689.56;4967649;28;99053;-70
2022/07/06 00:28:49;;;;;;;4.13;0.88;;;;;;;23.96;34.52;101678.16;4970144;28;96995;-70
2022/07/06 00:31:17;;;;;;;6.07;0.90;;;;;;;23.87;34.71;101685.09;4966697;28;99064;-70
2022/07/06 00:33:43;;;;;;;6.03;1.00;;;;;;;23.59;35.24;101688.16;4969468;28;97530;-70
2022/07/06 00:36:10;;;;;;;1.52;0.80;;;;;;;23.65;35.22;101693.94;4969239;28;96839;-70
2022/07/06 00:38:36;;;;;;;3.95;0.90;;;;;;;23.69;35.35;101689.19;4979339;28;97212;-69
2022/07/06 00:41:03;;;;;;;5.03;1.30;;;;;;;23.79;35.29;101679.41;4968499;28;98885;-70
2022/07/06 00:43:29;;;;;;;1.48;0.80;;;;;;;23.71;35.28;101679.13;4975658;28;99257;-71
2022/07/06 00:45:56;;;;;;;6.22;0.90;;;;;;;23.88;35.01;101684.13;4967922;28;98933;-70
2022/07/06 00:48:23;;;;;;;3.50;0.98;;;;;;;23.91;34.93;101688.41;4974070;28;97031;-71
2022/07/06 00:50:50;;;;;;;6.15;0.60;;;;;;;23.66;35.36;101684.88;4969077;28;99957;-70
2022/07/06 00:53:16;;;;;;;4.13;0.85;;;;;;;23.67;35.20;101691.16;4969377;28;99361;-70
2022/07/06 00:55:43;;;;;;;4.25;1.35;;;;;;;23.49;35.54;101689.84;4968008;28;97089;-70
2022/07/06 00:58:10;;;;;;;7.15;1.00;;;;;;;23.37;35.80;101695.13;4965467;28;97442;-69
2022/07/06 01:00:38;;;;;;;4.72;0.77;;;;;;;23.29;35.89;101694.84;4966413;28;100029;-70
2022/07/06 01:03:04;;;;;;;9.35;1.10;;;;;;;23.27;35.91;101694.09;4968822;28;98926;-71
2022/07/06 01:05:32;;;;;;;5.05;1.00;;;;;;;23.19;36.09;101701.00;4969383;28;98753;-70
2022/07/06 01:08:00;;;;;;;1.67;0.60;;;;;;;23.38;35.92;101698.69;4968514;28;96937;-70
2022/07/06 01:10:27;;;;;;;2.10;0.70;;;;;;;23.56;35.63;101701.88;4966766;28;99281;-70
2022/07/06 01:12:55;;;;;;;3.22;0.68;;;;;;;23.44;35.64;101696.38;4967892;28;98793;-70
2022/07/06 01:15:23;;;;;;;1.67;0.60;;;;;;;23.47;35.65;101691.75;4974951;28;96675;-70
2022/07/06 01:17:51;;;;;;;5.55;0.70;;;;;;;23.58;35.59;101686.44;4969572;28;96971;-70
2022/07/06 01:20:20;;;;;;;2.33;0.63;;;;;;;23.68;35.51;101692.88;4971094;28;98951;-70
2022/07/06 01:22:47;;;;;;;0.77;0.50;;;;;;;23.65;35.49;101693.09;4966359;28;99184;-70
2022/07/06 01:25:14;;;;;;;2.70;0.50;;;;;;;23.69;35.38;101700.84;4967742;28;98713;-70
2022/07/06 01:27:42;;;;;;;2.58;0.77;;;;;;;23.35;35.94;101699.78;4965483;28;96843;-70
2022/07/06 01:30:10;;;;;;;2.35;0.70;;;;;;;23.28;36.09;101700.34;4967502;28;99071;-70
2022/07/06 01:32:38;;;;;;;3.50;0.63;;;;;;;23.40;36.08;101699.44;4972462;28;98819;-70
2022/07/06 01:35:06;;;;;;;2.83;0.90;;;;;;;23.54;35.98;101701.13;4972064;28;97070;-70
2022/07/06 01:37:40;;;;;;;4.78;0.63;;;;;;;23.26;36.75;101689.66;4972105;28;98770;-71
2022/07/06 01:40:09;;;;;;;4.55;0.85;;;;;;;23.36;36.55;101688.03;4975676;28;99210;-71
2022/07/06 01:42:36;;;;;;;6.40;0.65;;;;;;;23.42;36.41;101687.56;4973130;28;101391;-71
2022/07/06 01:45:02;;;;;;;1.58;0.70;;;;;;;23.40;36.49;101680.56;4973452;28;96982;-71
2022/07/06 01:47:29;;;;;;;1.85;0.82;;;;;;;23.42;36.58;101686.69;4976867;28;98167;-70
2022/07/06 01:49:59;;;;;;;5.25;1.13;;;;;;;23.52;36.49;101687.75;4973714;28;100645;-70
2022/07/06 01:52:25;;;;;;;4.15;0.90;;;;;;;23.49;36.42;101679.06;4971399;28;99329;-71
2022/07/06 01:54:53;;;;;;;1.02;0.60;;;;;;;23.56;36.02;101683.88;4971138;28;96981;-70
2022/07/06 01:57:20;;;;;;;3.60;0.90;;;;;;;23.39;36.09;101685.09;4968232;28;98463;-70
2022/07/06 01:59:46;;;;;;;2.38;1.02;;;;;;;23.30;36.35;101683.06;4972127;28;101481;-70
2022/07/06 02:02:13;;;;;;;3.95;0.70;;;;;;;23.54;35.74;101690.34;4968752;28;99591;-70
2022/07/06 02:04:40;;;;;;;3.20;1.08;;;;;;;23.38;35.88;101694.16;4970718;28;96983;-70
2022/07/06 02:07:06;;;;;;;4.07;1.00;;;;;;;23.54;35.63;101691.22;4969663;28;97632;-70
2022/07/06 02:09:32;;;;;;;6.82;1.10;;;;;;;23.61;34.96;101703.25;4971509;28;99221;-70
2022/07/06 02:12:02;;;;;;;3.42;1.20;;;;;;;23.20;36.02;101711.69;4970340;28;101876;-70
2022/07/06 02:14:28;;;;;;;5.00;2.22;;;;;;;22.83;37.21;101718.03;4971446;28;96786;-69
2022/07/06 02:16:55;;;;;;;4.30;1.15;;;;;;;22.66;37.95;101730.81;4973758;28;96868;-70
2022/07/06 02:19:21;;;;;;;3.85;1.00;;;;;;;22.44;38.81;101735.13;4970042;28;99032;-70
2022/07/06 02:21:47;;;;;;;4.78;0.82;;;;;;;22.33;39.51;101737.69;4967802;28;96936;-70
2022/07/06 02:24:14;;;;;;;4.03;0.95;;;;;;;22.46;40.24;101730.47;4972174;28;97361;-70
2022/07/06 02:26:40;;;;;;;6.10;0.85;;;;;;;22.69;40.13;101742.34;4970152;28;96969;-70
2022/07/06 02:29:08;;;;;;;1.83;0.80;;;;;;;22.54;41.14;101741.59;4970052;28;98327;-70
2022/07/06 02:31:35;;;;;;;4.65;0.90;;;;;;;22.10;42.63;101742.84;4962667;28;101855;-70
2022/07/06 02:34:01;;;;;;;5.05;0.85;;;;;;;21.39;45.25;101739.53;4968026;28;97177;-70
2022/07/06 02:36:27;;;;;;;2.85;0.70;;;;;;;21.61;44.97;101731.75;4966105;28;97775;-69
2022/07/06 02:38:54;;;;;;;7.30;1.38;;;;;;;21.53;45.42;101726.00;4968045;28;99726;-69
2022/07/06 02:41:20;;;;;;;8.15;1.25;;;;;;;21.59;45.82;101735.53;4975808;28;98783;-69
2022/07/06 02:43:46;;;;;;;4.07;0.85;;;;;;;21.69;46.28;101745.56;4971677;28;96832;-69
2022/07/06 02:46:14;;;;;;;6.30;0.90;;;;;;;21.52;46.68;101745.84;4970451;28;97408;-70
2022/07/06 02:48:41;;;;;;;2.03;1.05;;;;;;;21.47;47.56;101742.56;4970488;28;99502;-70
2022/07/06 02:51:07;;;;;;;6.53;1.65;;;;;;;22.04;46.22;101745.94;4969326;28;99227;-70
2022/07/06 02:53:33;;;;;;;3.88;1.17;;;;;;;22.22;45.72;101750.06;4970457;28;98216;-70
2022/07/06 02:56:00;;;;;;;2.92;1.00;;;;;;;21.96;44.63;101748.28;4972078;28;96811;-71
2022/07/06 02:58:26;;;;;;;5.43;1.55;;;;;;;21.84;45.52;101739.19;4968219;28;96985;-70
2022/07/06 03:00:53;;;;;;;4.25;1.10;;;;;;;21.45;46.26;101737.31;4968632;28;99229;-70
2022/07/06 03:03:21;;;;;;;5.32;1.02;;;;;;;21.66;46.55;101740.38;4968563;28;97009;-70
2022/07/06 03:05:48;;;;;;;5.60;1.33;;;;;;;22.02;46.28;101747.88;4971319;28;97107;-69
2022/07/06 03:08:15;;;;;;;1.77;0.85;;;;;;;21.81;46.95;101746.56;4969071;28;98924;-70
2022/07/06 03:10:41;;;;;;;5.80;1.10;;;;;;;21.78;46.78;101755.72;4969433;28;100794;-70
2022/07/06 03:13:08;;;;;;;4.35;0.88;;;;;;;21.74;46.69;101751.50;4971765;28;96795;-70
2022/07/06 03:15:34;;;;;;;5.75;1.15;;;;;;;21.38;46.97;101759.31;4968621;28;97345;-70
2022/07/06 03:18:00;;;;;;;5.22;0.80;;;;;;;21.31;46.98;101760.66;4969981;28;99383;-69
2022/07/06 03:20:28;;;;;;;4.55;1.00;;;;;;;21.30;46.61;101756.25;4978975;28;99232;-71
2022/07/06 03:22:55;;;;;;;1.23;0.80;;;;;;;21.09;47.31;101753.94;4977771;28;96882;-69
2022/07/06 03:25:21;;;;;;;4.28;1.15;;;;;;;21.09;48.38;101755.75;4970830;28;97232;-71
2022/07/06 03:27:48;;;;;;;4.53;1.00;;;;;;;21.35;47.16;101764.88;4967215;28;99522;-70
2022/07/06 03:30:14;;;;;;;4.88;1.00;;;;;;;21.31;47.04;101753.47;4967970;28;98935;-71
2022/07/06 03:32:41;;;;;;;4.78;1.10;;;;;;;21.17;47.02;101755.31;4969508;28;96828;-70
2022/07/06 03:35:08;;;;;;;4.65;1.10;;;;;;;21.21;46.65;101748.75;4970463;28;97629;-69
2022/07/06 03:37:36;;;;;;;1.50;0.80;;;;;;;21.25;46.99;101748.47;4968274;28;100916;-70
2022/07/06 03:40:02;;;;;;;5.10;1.02;;;;;;;20.93;47.14;101752.31;4971049;28;98889;-71
2022/07/06 03:42:29;;;;;;;3.40;1.10;;;;;;;20.98;47.18;101756.44;4976040;28;99031;-71
2022/07/06 03:44:55;;;;;;;5.78;1.48;;;;;;;20.81;47.03;101751.25;4977576;28;97920;-70
2022/07/06 03:47:21;;;;;;;2.85;1.00;;;;;;;20.87;46.99;101756.22;4970629;28;99269;-69
2022/07/06 03:49:48;;;;;;;6.63;1.95;;;;;;;20.86;47.15;101751.84;4977977;28;99189;-70
2022/07/06 03:52:15;;;;;;;2.35;1.00;;;;;;;20.76;47.41;101757.84;4970288;28;96830;-70
2022/07/06 03:54:43;;;;;;;3.13;0.93;;;;;;;21.07;46.85;101755.84;4971964;28;97554;-70
2022/07/06 03:57:11;;;;;;;6.45;1.20;;;;;;;21.23;47.05;101747.72;4970154;28;99188;-70
2022/07/06 03:59:37;;;;;;;7.20;1.45;;;;;;;21.39;45.73;101750.28;4977492;28;99309;-70
2022/07/06 04:02:04;;;;;;;4.57;1.23;;;;;;;21.39;46.34;101751.16;4970423;28;97165;-70
2022/07/06 04:04:30;;;;;;;10.10;1.83;;;;;;;21.51;45.94;101756.69;4971282;28;97048;-70
2022/07/06 04:06:56;;;;;;;4.35;1.33;;;;;;;21.36;45.54;101753.16;4968104;28;99566;-69
2022/07/06 04:09:23;;;;;;;3.17;0.98;;;;;;;21.32;45.62;101755.19;4966934;28;98707;-70
2022/07/06 04:11:50;;;;;;;3.72;0.70;;;;;;;21.50;45.34;101760.31;4971212;28;97403;-70
2022/07/06 04:14:17;;;;;;;4.75;1.45;;;;;;;21.45;45.09;101755.25;4970028;28;96852;-71
2022/07/06 04:16:44;;;;;;;5.10;1.00;;;;;;;21.62;44.26;101762.22;4966835;28;99588;-72
2022/07/06 04:19:10;;;;;;;3.78;0.85;;;;;;;21.61;44.11;101757.78;4974051;28;99106;-70
2022/07/06 04:21:37;;;;;;;3.45;0.77;;;;;;;21.56;44.57;101758.09;4975542;28;98863;-70
2022/07/06 04:24:04;;;;;;;4.55;0.98;;;;;;;21.41;45.02;101757.25;4969938;28;97174;-72
2022/07/06 04:26:30;;;;;;;2.55;0.93;;;;;;;21.42;44.93;101755.44;4966004;28;99430;-70
2022/07/06 04:28:58;;;;;;;6.40;0.98;;;;;;;21.44;45.19;101756.22;4968042;28;98814;-70
2022/07/06 04:31:24;;;;;;;5.55;1.08;;;;;;;21.59;44.82;101762.44;4970895;28;97082;-70
2022/07/06 04:33:51;;;;;;;7.25;1.20;;;;;;;21.70;44.43;101758.06;4969042;28;97790;-70
2022/07/06 04:36:17;;;;;;;6.20;1.08;;;;;;;21.38;44.85;101756.63;4970419;28;100688;-70
2022/07/06 04:38:44;;;;;;;3.17;1.20;;;;;;;21.31;44.64;101752.59;4971805;28;99265;-71
2022/07/06 04:41:10;;;;;;;6.38;1.55;;;;;;;21.59;44.03;101752.53;4968398;28;96829;-70
2022/07/06 04:43:37;;;;;;;6.05;1.00;;;;;;;21.56;44.03;101752.72;4969343;28;96937;-70
2022/07/06 04:46:05;;;;;;;3.35;1.15;;;;;;;21.69;44.12;101759.03;4966026;28;99025;-69
2022/07/06 04:48:32;;;;;;;8.75;1.38;;;;;;;21.87;43.23;101757.78;4965942;28;98813;-70
2022/07/06 04:50:58;;;;;;;7.35;1.20;;;;;;;22.10;42.60;101758.13;4969616;28;96764;-69
2022/07/06 04:53:24;;;;;;;4.47;1.20;;;;;;;22.26;42.68;101756.97;4971301;28;97066;-70
2022/07/06 04:55:51;;;;;;;5.53;1.15;;;;;;;21.68;42.83;101751.91;4969649;28;98241;-70
2022/07/06 04:58:17;;;;;;;4.78;1.60;;;;;;;21.67;43.07;101760.94;4966865;28;98703;-71
2022/07/06 05:00:44;;;;;;;6.05;1.00;;;;;;;21.31;43.95;101748.09;4967385;28;97155;-71
2022/07/06 05:03:11;;;;;;;6.95;1.65;;;;;;;20.98;44.83;101756.44;4963875;28;98412;-70
2022/07/06 05:05:38;;;;;;;5.65;0.90;;;;;;;22.24;42.15;101766.13;4965644;28;99296;-70
2022/07/06 05:08:05;;;;;;;5.43;0.90;;;;;;;23.19;40.55;101750.41;4963375;28;98849;-70
2022/07/06 05:10:32;;;;;;;5.93;1.23;;;;;;;23.75;38.81;101759.75;4972839;28;96836;-70
2022/07/06 05:12:58;;;;;;;5.90;1.30;;;;;;;24.09;38.16;101760.75;4972891;28;97052;-70
2022/07/06 05:15:24;;;;;;;4.45;0.88;;;;;;;;;;4971051;28;99675;-70
2022/07/06 05:17:51;;;;;;;3.92;1.10;;;;;;;24.03;38.12;101769.31;4968677;28;98835;-70
2022/07/06 05:20:18;;;;;;;2.65;0.90;;;;;;;25.31;35.89;101764.69;4972803;28;96838;-71
2022/07/06 05:22:45;;;;;;;4.78;0.93;;;;;;;24.80;36.40;101767.84;4962029;28;97901;-70
2022/07/06 05:25:12;;;;;;;4.90;1.20;;;;;;;23.62;37.93;101768.88;4968449;28;99318;-71
2022/07/06 05:27:38;;;;;;;7.00;1.10;;;;;;;23.56;38.64;101761.25;4970395;28;99247;-71
2022/07/06 05:30:06;;;;;;;2.22;0.75;;;;;;;23.98;37.92;101752.63;4971538;28;96810;-71
2022/07/06 05:32:40;;;;;;;3.83;0.90;;;;;;;24.03;37.42;101758.53;4971552;28;97558;-71
2022/07/06 05:35:08;;;;;;;7.28;1.20;;;;;;;23.28;39.11;101755.13;4979371;28;99274;-70
2022/07/06 05:37:35;;;;;;;7.32;1.15;;;;;;;23.29;38.58;101751.47;4972803;28;99244;-71
2022/07/06 05:40:02;;;;;;;4.95;1.00;;;;;;;23.19;38.94;101761.19;4972902;28;97047;-70
2022/07/06 05:42:28;;;;;;;2.88;0.93;;;;;;;22.86;39.60;101759.06;4962687;28;97401;-71
2022/07/06 05:44:57;;;;;;;5.93;0.95;;;;;;;22.76;39.47;101757.16;4972808;28;99901;-71
2022/07/06 05:50:14;;;;;;;5.15;2.60;;;;;;;22.43;39.93;101766.59;4972773;28;97723;-71
2022/07/06 05:52:44;;;;;;;3.88;1.98;;;;;;;22.63;39.97;101766.06;4970914;28;96838;-70
2022/07/06 05:55:11;;;;;;;5.40;1.23;;;;;;;23.18;38.59;101772.06;4974338;28;99256;-70
2022/07/06 05:57:38;;;;;;;4.57;0.85;;;;;;;22.76;39.32;101763.41;4971082;28;99150;-70
2022/07/06 06:00:06;;;;;;;3.92;1.17;;;;;;;22.78;39.06;101760.56;4972615;28;97034;-70
2022/07/06 06:02:39;;;;;;;5.82;1.13;;;;;;;22.50;39.86;101764.34;4968244;28;97065;-70
2022/07/06 06:05:07;;;;;;;3.80;0.80;;;;;;;22.47;40.19;101764.53;4971709;28;98826;-70
2022/07/06 06:07:35;;;;;;;7.68;1.70;;;;;;;22.75;39.72;101758.97;4971557;28;98915;-70
2022/07/06 06:10:04;;;;;;;4.93;0.77;;;;;;;22.87;39.35;101760.81;4971724;28;97365;-70
2022/07/06 06:12:31;;;;;;;6.05;1.25;;;;;;;22.66;39.76;101757.75;4971784;28;97328;-70
2022/07/06 06:14:57;;;;;;;7.60;2.22;;;;;;;22.37;40.47;101758.94;4972479;28;99182;-71
2022/07/06 06:17:24;;;;;;;5.32;1.05;;;;;;;22.74;39.70;101762.63;4968171;28;98864;-70
2022/07/06 06:19:50;;;;;;;6.00;1.20;;;;;;;22.98;39.58;101768.97;4969585;28;98980;-70
2022/07/06 06:22:17;;;;;;;4.68;0.80;;;;;;;23.44;38.60;101761.13;4970546;28;96930;-71
2022/07/06 06:24:43;;;;;;;7.13;1.08;;;;;;;23.97;37.55;101763.53;4968167;28;98166;-70
2022/07/06 06:27:11;;;;;;;7.32;1.45;;;;;;;23.25;38.60;101771.53;4970952;28;97574;-71
2022/07/06 06:29:38;;;;;;;7.65;1.50;;;;;;;23.41;38.26;101765.88;4970929;28;96809;-71
2022/07/06 06:32:05;;;;;;;5.80;0.93;;;;;;;23.16;38.74;101756.03;4971097;28;97181;-70
2022/07/06 06:34:32;;;;;;;8.70;1.15;;;;;;;22.94;39.00;101767.47;4979682;28;99377;-71
2022/07/06 06:37:07;;;;;;;8.35;2.47;;;;;;;22.65;39.62;101766.81;4977791;28;98805;-71
2022/07/06 06:39:34;;;;;;;4.18;0.85;;;;;;;22.65;40.00;101763.25;4967586;28;96742;-71
2022/07/06 06:42:00;;;;;;;6.93;1.13;;;;;;;23.18;39.44;101769.38;4970777;28;97134;-70
2022/07/06 06:44:28;;;;;;;7.78;1.02;;;;;;;23.68;37.90;101763.88;4970379;28;98724;-70
2022/07/06 06:46:54;;;;;;;2.83;0.95;;;;;;;24.17;37.22;101773.66;4970821;28;99320;-70
2022/07/06 06:49:21;;;;;;;6.28;1.00;;;;;;;24.48;36.36;101766.81;4972050;28;97097;-69
2022/07/06 06:51:47;;;;;;;5.78;1.10;;;;;;;24.63;35.82;101768.31;4965986;28;96939;-69
2022/07/06 06:54:14;;;;;;;4.30;0.80;;;;;;;25.12;35.03;101776.13;4969887;28;98557;-69
2022/07/06 06:56:40;;;;;;;4.57;0.98;;;;;;;24.46;36.14;101776.88;4968958;28;98764;-70
2022/07/06 06:59:06;;;;;;;6.10;2.03;;;;;;;23.50;37.66;101772.50;4970284;28;96869;-70
2022/07/06 07:01:37;;;;;;;6.10;0.98;;;;;;;23.23;38.37;101772.63;4969651;28;97127;-70
2022/07/06 07:04:05;;;;;;;3.10;0.90;;;;;;;22.87;39.15;101768.03;4971264;28;99398;-70
2022/07/06 07:06:32;;;;;;;3.30;0.75;;;;;;;23.64;37.65;101767.78;4975117;28;98826;-69
2022/07/06 07:08:58;;;;;;;4.72;0.60;;;;;;;24.19;36.56;101767.22;4969589;28;96914;-69
2022/07/06 07:11:25;;;;;;;3.70;0.77;;;;;;;24.14;35.71;101776.63;4975662;28;97105;-70
2022/07/06 07:13:51;;;;;;;3.75;0.98;;;;;;;23.73;36.69;101771.63;4970079;28;98994;-70
2022/07/06 07:16:18;;;;;;;3.42;1.15;;;;;;;24.32;35.86;101780.63;4971929;28;98917;-70
2022/07/06 07:18:46;;;;;;;3.53;0.70;;;;;;;23.67;36.14;101781.06;4972252;28;97159;-70
2022/07/06 07:21:12;;;;;;;2.78;0.80;;;;;;;23.52;36.44;101779.47;4967743;28;97324;-70
2022/07/06 07:23:38;;;;;;;3.00;0.75;;;;;;;23.30;36.05;101780.13;4969944;28;98946;-70
2022/07/06 07:26:06;;;;;;;5.53;1.20;;;;;;;23.94;35.59;101779.97;4968198;28;98831;-69
2022/07/06 07:28:33;;;;;;;5.50;0.70;;;;;;;24.68;34.22;101782.31;4967124;28;98382;-70
2022/07/06 07:31:02;;;;;;;2.35;0.70;;;;;;;24.36;33.25;101776.72;4969435;28;96899;-69
2022/07/06 07:33:29;;;;;;;3.63;0.70;;;;;;;24.61;32.88;101783.81;4973847;28;99605;-71
2022/07/06 07:35:56;;;;;;;3.95;0.82;;;;;;;24.82;32.31;101783.94;4969228;28;98210;-71
2022/07/06 07:38:23;;;;;;;2.25;0.85;;;;;;;24.54;32.53;101780.72;4967809;28;97191;-70
2022/07/06 07:40:50;;;;;;;5.22;1.98;;;;;;;24.59;32.31;101780.34;4968307;28;97993;-70
2022/07/06 07:43:16;;;;;;;5.60;1.13;;;;;;;25.06;31.99;101779.31;4968372;28;99681;-70
2022/07/06 07:45:42;;;;;;;7.75;3.00;;;;;;;24.61;32.60;101781.09;4969260;28;98934;-70
2022/07/06 07:48:09;;;;;;;6.78;1.50;;;;;;;24.31;32.44;101778.06;4968792;28;97321;-69
2022/07/06 07:50:35;;;;;;;1.90;0.70;;;;;;;24.42;32.05;101781.63;4968436;28;97552;-70
2022/07/06 07:53:03;;;;;;;3.33;0.50;;;;;;;24.06;32.45;101785.31;4969303;28;98940;-70
2022/07/06 07:55:30;;;;;;;2.95;0.88;;;;;;;24.28;32.17;101789.97;4978375;28;98949;-70
2022/07/06 07:57:56;;;;;;;2.95;0.68;;;;;;;24.19;33.09;101788.81;4971994;28;96942;-69
2022/07/06 08:00:24;;;;;;;2.50;0.70;;;;;;;24.48;32.58;101785.72;4967065;28;97433;-70
2022/07/06 08:02:50;;;;;;;2.78;1.20;;;;;;;23.89;32.54;101792.97;4959573;28;100465;-70
2022/07/06 08:05:17;;;;;;;4.45;0.95;;;;;;;24.43;31.95;101786.06;4970946;28;99499;-71
2022/07/06 08:07:44;;;;;;;5.43;1.80;;;;;;;25.10;31.02;101788.03;4971392;28;97018;-69
2022/07/06 08:10:11;;;;;;;6.40;0.73;;;;;;;25.42;30.39;101781.75;4974206;28;97263;-69
2022/07/06 08:12:38;;;;;;;2.13;0.60;;;;;;;25.31;31.03;101789.03;4969140;28;99572;-70
2022/07/06 08:15:06;;;;;;;4.32;1.05;;;;;;;25.06;31.53;101792.00;4976008;28;98809;-69
2022/07/06 08:17:32;;;;;;;4.00;1.10;;;;;;;25.20;31.48;101789.03;4973278;28;96849;-70
2022/07/06 08:19:59;;;;;;;4.30;1.30;;;;;;;25.14;31.70;101787.66;4969386;28;97307;-70
2022/07/06 08:22:26;;;;;;;3.88;0.70;;;;;;;24.71;32.11;101794.72;4970337;28;99114;-70
2022/07/06 08:24:53;;;;;;;1.58;0.50;;;;;;;24.70;32.06;101795.72;4974236;28;98854;-69
2022/07/06 08:27:21;;;;;;;5.50;0.70;;;;;;;25.23;31.58;101786.94;4965484;28;97576;-70
2022/07/06 08:29:47;;;;;;;3.42;0.80;;;;;;;24.69;31.74;101792.13;4969852;28;96905;-70
2022/07/06 08:32:14;;;;;;;2.42;0.60;;;;;;;24.30;32.07;101788.00;4976892;28;98902;-70
2022/07/06 08:34:40;;;;;;;2.53;0.73;;;;;;;25.20;31.18;101789.03;4971282;28;99028;-71
2022/07/06 08:37:06;;;;;;;5.68;0.80;;;;;;;25.36;30.05;101784.09;4968717;28;97045;-71
2022/07/06 08:39:33;;;;;;;2.45;0.55;;;;;;;24.82;30.29;101790.19;4973018;28;98308;-70
2022/07/06 08:42:02;;;;;;;4.97;1.05;;;;;;;24.77;30.31;101792.41;4971771;28;97979;-70
2022/07/06 08:44:31;;;;;;;3.50;0.75;;;;;;;24.57;29.78;101799.38;4980962;28;97998;-70
2022/07/06 08:46:59;;;;;;;1.95;0.63;;;;;;;24.60;30.16;101795.59;4973385;28;97104;-71
2022/07/06 08:49:27;;;;;;;6.20;0.70;;;;;;;24.21;29.25;101791.41;4971975;28;96856;-70
2022/07/06 08:51:53;;;;;;;2.85;0.75;;;;;;;24.54;29.30;101774.44;4970990;28;99153;-73
2022/07/06 08:54:22;;;;;;;2.25;0.50;;;;;;;24.09;29.63;101803.94;4978136;28;97957;-70
2022/07/06 08:56:49;;;;;;;4.38;0.73;;;;;;;24.29;29.06;101788.97;4982806;28;97148;-70
2022/07/06 08:59:16;;;;;;;3.60;0.60;;;;;;;24.91;28.18;101786.81;4979073;28;96846;-71
2022/07/06 09:01:45;;;;;;;5.03;0.60;;;;;;;25.35;27.91;101793.19;4983658;28;99441;-71
2022/07/06 09:04:13;;;;;;;3.30;0.90;;;;;;;25.28;28.08;101789.25;4978200;28;97720;-70
2022/07/06 09:06:42;;;;;;;6.72;4.00;;;;;;;25.60;27.89;101790.22;4979421;28;96740;-69
2022/07/06 09:09:10;;;;;;;2.50;0.60;;;;;;;25.48;28.16;101793.03;4976043;28;97932;-70
2022/07/06 09:11:40;;;;;;;1.42;0.45;;;;;;;25.02;27.98;101794.91;4976111;28;100061;-72
2022/07/06 09:14:07;;;;;;;5.25;0.65;;;;;;;25.32;28.00;101788.91;4975545;28;99330;-71
2022/07/06 09:16:34;;;;;;;6.93;0.68;;;;;;;24.68;28.65;101792.28;4975923;28;97008;-70
2022/07/06 09:19:01;;;;;;;1.58;0.38;;;;;;;24.86;28.38;101789.00;4977974;28;96893;-71
2022/07/06 09:21:31;;;;;;;4.18;0.50;;;;;;;25.03;26.18;101793.09;4974785;28;99042;-70
2022/07/06 09:24:00;;;;;;;3.58;0.40;;;;;;;24.82;25.96;101797.44;4975582;28;97678;-70
2022/07/06 09:26:27;;;;;;;3.53;0.50;;;;;;;25.19;25.88;101799.00;4976696;28;96935;-71
2022/07/06 09:28:56;;;;;;;4.15;0.65;;;;;;;24.85;26.18;101792.66;4974520;28;98374;-70
2022/07/06 09:31:23;;;;;;;3.45;0.70;;;;;;;24.29;26.79;101797.06;4976827;28;99033;-70
2022/07/06 09:33:57;;;;;;;1.90;0.40;;;;;;;24.07;27.61;101792.44;4974620;28;99367;-70
2022/07/06 09:36:49;;;;;;;2.33;0.50;;;;;;;24.27;27.39;101787.38;4975316;28;97005;-70
2022/07/06 09:39:21;;;;;;;2.30;0.63;;;;;;;25.08;26.82;101795.41;4970415;28;96771;-70
2022/07/06 09:41:51;;;;;;;4.03;0.60;;;;;;;25.07;26.62;101793.72;4973535;28;97916;-71
2022/07/06 09:44:27;;;;;;;1.83;0.50;;;;;;;24.14;26.53;101799.09;4978714;28;98831;-70
2022/07/06 09:46:57;;;;;;;3.70;0.40;;;;;;;24.26;26.87;101793.75;4977027;28;97685;-70
2022/07/06 09:49:24;;;;;;;26.73;1.42;;;;;;;24.05;28.44;101788.09;4977464;28;96958;-71
2022/07/06 09:51:53;;;;;;;4.00;0.65;;;;;;;24.27;28.02;101799.03;4972101;28;99260;-70
2022/07/06 09:54:20;;;;;;;2.25;0.63;;;;;;;24.32;27.96;101802.25;4974876;28;98808;-71
2022/07/06 09:56:50;;;;;;;2.38;0.50;;;;;;;24.38;28.75;101807.19;4974719;28;96892;-72
2022/07/06 09:59:20;;;;;;;1.08;0.65;;;;;;;24.50;28.85;101797.25;4981490;28;96910;-71
2022/07/06 10:01:48;;;;;;;4.30;1.00;;;;;;;23.88;29.21;101805.59;4971766;28;100575;-70
2022/07/06 10:04:18;;;;;;;2.13;0.30;;;;;;;24.29;29.22;101807.00;4977723;28;99155;-71
2022/07/06 10:06:45;;;;;;;2.95;0.77;;;;;;;25.41;28.03;101807.06;4971979;28;98230;-71
2022/07/06 10:09:14;;;;;;;4.03;0.57;;;;;;;25.74;27.52;101805.34;4978059;28;97147;-72
2022/07/06 10:11:45;;;;;;;3.78;0.70;;;;;;;26.03;27.15;101811.03;4972974;28;99585;-72
2022/07/06 10:14:15;;;;;;;2.42;1.10;;;;;;;25.78;27.43;101804.97;4975128;28;98867;-70
2022/07/06 10:16:46;;;;;;;1.73;0.68;;;;;;;25.36;28.51;101811.16;4972474;28;96765;-72
2022/07/06 10:19:14;;;;;;;4.38;0.65;;;;;;;25.69;28.18;101813.84;4981650;28;99021;-70
2022/07/06 10:21:41;;;;;;;1.67;0.90;;;;;;;25.69;28.32;101810.28;4972433;28;98934;-70
2022/07/06 10:24:09;;;;;;;2.45;0.55;;;;;;;25.24;29.06;101810.31;4980030;28;99624;-70
2022/07/06 10:26:37;;;;;;;2.28;0.80;;;;;;;25.37;28.65;101818.28;4972254;28;96787;-70
2022/07/06 10:29:06;;;;;;;2.85;0.70;;;;;;;25.74;28.10;101811.59;4981057;28;97084;-71
2022/07/06 10:31:35;;;;;;;4.38;0.80;;;;;;;25.86;28.28;101820.59;4974136;28;98212;-70
2022/07/06 10:34:04;;;;;;;3.72;0.63;;;;;;;25.70;28.59;101815.56;4978448;28;99397;-71
2022/07/06 10:36:31;;;;;;;3.20;0.60;;;;;;;25.90;27.99;101813.91;4971967;28;98240;-71
2022/07/06 10:41:02;;;;;;;1.65;0.40;;;;;;;25.25;28.04;101805.75;4974038;28;96925;-70
2022/07/06 10:41:45;;;;;;;7.72;0.88;;;;;;;25.38;28.36;101804.63;4975599;28;98903;-70
2022/07/06 10:44:18;;;;;;;1.80;0.60;;;;;;;25.85;27.93;101801.75;4975521;28;99159;-71
2022/07/06 10:46:52;;;;;;;2.30;0.47;;;;;;;25.88;28.00;101802.34;4976923;28;97311;-70
2022/07/06 10:49:19;;;;;;;47.70;2.33;;;;;;;25.86;27.50;101798.06;4974221;28;97439;-70
2022/07/06 10:51:49;;;;;;;5.22;0.80;;;;;;;26.04;27.63;101793.81;4971599;28;98992;-71
2022/07/06 10:54:16;;;;;;;6.13;0.60;;;;;;;25.48;28.48;101796.63;4971775;28;98384;-70
2022/07/06 10:56:44;;;;;;;2.50;0.50;;;;;;;25.77;27.96;101799.69;4971287;28;97428;-71
2022/07/06 10:59:13;;;;;;;1.35;0.60;;;;;;;25.92;27.50;101786.72;4973866;28;96974;-70
2022/07/06 11:01:39;;;;;;;2.35;0.50;;;;;;;26.15;27.19;101788.34;4972054;28;100073;-71
2022/07/06 11:04:08;;;;;;;1.98;0.60;;;;;;;26.63;26.88;101788.75;4975596;28;98855;-70
2022/07/06 11:06:37;;;;;;;2.55;0.65;;;;;;;27.04;26.28;101784.28;4975428;28;96922;-70
2022/07/06 11:09:33;;;;;;;2.72;0.50;;;;;;;26.31;26.28;101787.94;5067998;27;97024;-71
2022/07/06 11:12:12;;;;;;;3.08;1.00;;;;;;;25.45;27.72;101783.34;5049777;27;97087;-71
2022/07/06 11:14:39;;;;;;;2.50;0.55;;;;;;;25.31;28.69;101789.03;5056095;27;99190;-70
2022/07/06 11:17:10;;;;;;;3.80;0.68;;;;;;;24.27;30.21;101800.88;5051427;27;98599;-71
2022/07/06 11:19:37;;;;;;;14.73;1.02;;;;;;;24.31;29.67;101794.25;5054872;27;96922;-71
2022/07/06 11:22:08;;;;;;;5.80;0.60;;;;;;;24.32;30.09;101796.84;5034398;27;97506;-71
2022/07/06 11:24:37;;;;;;;3.65;0.63;;;;;;;24.53;29.83;101788.94;5047448;27;97820;-70
2022/07/06 11:27:06;;;;;;;2.95;0.57;;;;;;;24.90;29.45;101800.44;5048150;27;99596;-71
2022/07/06 11:29:36;;;;;;;3.88;0.50;;;;;;;25.41;27.80;101792.69;5053415;27;96771;-70
2022/07/06 11:32:09;;;;;;;1.95;0.40;;;;;;;25.95;26.29;101791.88;5048009;27;97214;-70